Main page
METAR-TAF:

METAR-TAF

Airports :

Győr, Hungary

Győr-Pér International Airport

latitude: 47-37-28N, longitude: 017-48-49E, elevation: 129 m

Current weather observation

The report was made 33 minutes ago, at 01:15 UTC
Wind 3 kt from the East/Northeast
Temperature 12°C
Humidity 100%
Pressure 1024 hPa
Visibility: 9000 m
light rain showers

METAR: LHPR 260115Z AUTO 07003KT 9000 -SHRA NSC 12/12 Q1024 RMK BLU

Time: 03:48 (01:48 UTC)

Forecast

The report was made 8 hours and 33 minutes ago, at 17:15 UTC
Forecast valid from 25 at 18 UTC to 26 at 03 UTC
Wind 4 kt from the East/Northeast
Visibility 10 km or more
no clouds below 1500 m and no cumulonimbus
Temporary
from 25 at 23 UTC to 26 at 03 UTC
Visibility: 5000 m
Few clouds at a height of 1000 ft
Scattered clouds at a height of 2000 ft
Overcast at a height of 3300 ft
light rain

TAF: LHPR 251715Z 2518/2603 06004KT CAVOK TEMPO 2523/2603 5000 -RA FEW010 SCT020 OVC033

Weather observations and forecasts of more than 4000 airports (METAR and TAF reports).

The available stations are represented by yellow and red dots on the map.

Hover mouse over dot to see the name of the station.

Then click to see weather observations and forecasts.

To change the map : click on the green buttons with a black cross to zoom in, on the green button with a dash to zoom out, or on the green arrows for adjacent maps.


METAR-TAF: